Time;durP1;ratioP1;P1;durP2;ratioP2;P2;SDS_P1;SDS_P2;PMS_P1;PMS_P2;Temp;Humidity;BMP_temperature;BMP_pressure;BME280_temperature;BME280_humidity;BME280_pressure;Samples;Min_cycle;Max_cycle;Signal;HPM_P1;HPM_P2
2021/05/15 00:01:25;;;;;;;9.75;2.90;;;;;;;;;;4374942;32;20500;-62
2021/05/15 00:03:51;;;;;;;10.43;3.75;;;;;;;;;;4350334;32;20093;-61
2021/05/15 00:06:18;;;;;;;11.48;3.72;;;;;;;;;;4363469;32;20523;-63
2021/05/15 00:08:45;;;;;;;14.07;3.35;;;;;;;;;;4374980;32;20086;-63
2021/05/15 00:11:11;;;;;;;10.32;3.00;;;;;;;;;;4338193;32;20066;-62
2021/05/15 00:13:38;;;;;;;9.57;3.33;;;;;;;;;;4362751;32;20082;-63
2021/05/15 00:16:05;;;;;;;11.40;3.20;;;;;;;;;;4362446;32;20078;-63
2021/05/15 00:18:32;;;;;;;9.25;3.40;;;;;;;;;;4376377;32;20082;-63
2021/05/15 00:20:59;;;;;;;13.95;3.67;;;;;;;;;;4362384;32;20089;-62
2021/05/15 00:23:26;;;;;;;11.10;3.50;;;;;;;;;;4391646;32;20149;-62
2021/05/15 00:25:52;;;;;;;9.93;3.47;;;;;;;;;;4380048;32;20436;-62
2021/05/15 00:28:19;;;;;;;10.32;3.65;;;;;;;;;;4405233;32;20451;-63
2021/05/15 00:30:45;;;;;;;12.32;3.30;;;;;;;;;;4392822;32;20093;-63
2021/05/15 00:33:12;;;;;;;11.73;3.85;;;;;;;;;;4393064;32;20066;-62
2021/05/15 00:35:38;;;;;;;11.75;3.33;;;;;;;;;;4406313;32;20057;-63
2021/05/15 00:38:05;;;;;;;13.57;3.50;;;;;;;;;;4379777;32;20141;-63
2021/05/15 00:40:32;;;;;;;7.82;3.03;;;;;;;;;;4392618;32;20073;-62
2021/05/15 00:42:58;;;;;;;12.10;3.08;;;;;;;;;;4404629;32;20053;-61
2021/05/15 00:45:25;;;;;;;8.32;2.80;;;;;;;;;;4392620;32;20081;-62
2021/05/15 00:47:51;;;;;;;7.00;2.95;;;;;;;;;;4392959;32;20097;-62
2021/05/15 00:50:18;;;;;;;12.60;3.60;;;;;;;;;;4380068;32;20080;-62
2021/05/15 00:52:47;;;;;;;11.05;3.12;;;;;;;;;;4392500;32;20074;-63
2021/05/15 00:55:14;;;;;;;8.90;2.95;;;;;;;;;;4392805;32;20085;-62
2021/05/15 00:57:41;;;;;;;9.88;3.10;;;;;;;;;;4379715;32;20066;-62
2021/05/15 01:00:12;;;;;;;10.25;3.40;;;;;;;;;;4379885;32;20139;-62
2021/05/15 01:02:40;;;;;;;8.55;3.33;;;;;;;;;;4380068;32;20112;-62
2021/05/15 01:05:08;;;;;;;8.15;3.42;;;;;;;;;;4380508;32;20069;-63
2021/05/15 01:07:34;;;;;;;5.43;2.65;;;;;;;;;;4380163;32;20575;-62
2021/05/15 01:10:01;;;;;;;11.23;4.05;;;;;;;;;;4404903;32;20500;-63
2021/05/15 01:12:28;;;;;;;11.68;3.65;;;;;;;;;;4379727;32;20108;-62
2021/05/15 01:14:55;;;;;;;8.65;3.30;;;;;;;;;;4392370;32;20070;-62
2021/05/15 01:17:21;;;;;;;7.10;3.15;;;;;;;;;;4379727;32;20073;-63
2021/05/15 01:19:48;;;;;;;13.80;3.20;;;;;;;;;;4392031;32;20077;-62
2021/05/15 01:22:15;;;;;;;9.00;3.00;;;;;;;;;;4392011;32;20144;-63
2021/05/15 01:24:43;;;;;;;9.15;3.08;;;;;;;;;;4379830;32;20169;-63
2021/05/15 01:27:12;;;;;;;12.35;3.40;;;;;;;;;;4392153;32;20097;-63
2021/05/15 01:29:39;;;;;;;10.77;3.10;;;;;;;;;;4405413;32;20078;-61
2021/05/15 01:32:06;;;;;;;10.88;3.85;;;;;;;;;;4394975;32;20076;-63
2021/05/15 01:34:33;;;;;;;13.07;3.25;;;;;;;;;;4395280;32;20135;-63
2021/05/15 01:36:59;;;;;;;11.48;3.33;;;;;;;;;;4374299;32;20166;-63
2021/05/15 01:39:26;;;;;;;14.80;3.72;;;;;;;;;;4377030;32;20066;-63
2021/05/15 01:41:53;;;;;;;8.98;2.95;;;;;;;;;;4352404;32;20084;-63
2021/05/15 01:44:19;;;;;;;9.10;3.08;;;;;;;;;;4364566;32;20138;-63
2021/05/15 01:46:46;;;;;;;11.65;3.30;;;;;;;;;;4352727;32;20085;-63
2021/05/15 01:49:13;;;;;;;12.40;3.28;;;;;;;;;;4364744;32;20073;-63
2021/05/15 01:51:39;;;;;;;9.88;3.78;;;;;;;;;;4352389;32;20076;-63
2021/05/15 01:54:06;;;;;;;6.37;2.90;;;;;;;;;;4352509;32;20074;-62
2021/05/15 01:56:32;;;;;;;13.57;3.15;;;;;;;;;;4377631;32;20077;-63
2021/05/15 01:58:59;;;;;;;12.73;3.53;;;;;;;;;;4364680;32;20142;-63
2021/05/15 02:01:26;;;;;;;14.50;3.70;;;;;;;;;;4352552;32;20069;-62
2021/05/15 02:03:53;;;;;;;10.45;3.22;;;;;;;;;;4339960;32;20070;-62
2021/05/15 02:06:20;;;;;;;7.65;3.20;;;;;;;;;;4352467;32;20509;-63
2021/05/15 02:08:47;;;;;;;9.63;3.03;;;;;;;;;;4364389;32;20105;-63
2021/05/15 02:11:16;;;;;;;11.52;3.55;;;;;;;;;;4340479;32;20081;-63
2021/05/15 02:13:50;;;;;;;8.68;3.58;;;;;;;;;;4377084;32;20074;-61
2021/05/15 02:16:19;;;;;;;8.43;3.10;;;;;;;;;;4352144;32;20078;-63
2021/05/15 02:18:47;;;;;;;9.60;4.50;;;;;;;;;;4351960;32;20151;-63
2021/05/15 02:21:14;;;;;;;9.15;3.10;;;;;;;;;;4364171;32;20062;-62
2021/05/15 02:23:40;;;;;;;9.73;3.25;;;;;;;;;;4384013;32;20512;-63
2021/05/15 02:26:07;;;;;;;5.97;2.87;;;;;;;;;;4382023;32;20077;-63
2021/05/15 02:28:34;;;;;;;13.18;3.53;;;;;;;;;;4394580;32;20073;-62
2021/05/15 02:31:01;;;;;;;8.43;3.05;;;;;;;;;;4394343;32;20077;-62
2021/05/15 02:33:27;;;;;;;7.00;2.90;;;;;;;;;;4393691;32;20062;-62
2021/05/15 02:35:54;;;;;;;7.80;3.05;;;;;;;;;;4399378;32;20108;-63
2021/05/15 02:38:21;;;;;;;9.75;2.97;;;;;;;;;;4351876;32;20070;-62
2021/05/15 02:40:48;;;;;;;9.65;2.95;;;;;;;;;;4351705;32;20073;-63
2021/05/15 02:43:16;;;;;;;6.18;2.70;;;;;;;;;;4351350;32;20086;-62
2021/05/15 02:45:43;;;;;;;8.40;3.05;;;;;;;;;;4351770;32;20071;-63
2021/05/15 02:48:10;;;;;;;10.63;3.12;;;;;;;;;;4351560;32;20178;-62
2021/05/15 02:50:36;;;;;;;9.55;3.08;;;;;;;;;;4364017;32;20198;-62
2021/05/15 02:53:03;;;;;;;9.10;3.10;;;;;;;;;;4376232;32;20505;-63
2021/05/15 02:55:29;;;;;;;9.70;5.10;;;;;;;;;;4351698;32;20092;-63
2021/05/15 02:57:56;;;;;;;8.07;2.85;;;;;;;;;;4376148;32;20163;-63
2021/05/15 03:00:27;;;;;;;8.32;3.10;;;;;;;;;;4363613;32;20077;-62
2021/05/15 03:02:55;;;;;;;10.95;3.42;;;;;;;;;;4363691;32;20073;-62
2021/05/15 03:05:23;;;;;;;7.07;3.03;;;;;;;;;;4339485;32;20159;-63
2021/05/15 03:07:50;;;;;;;10.02;2.95;;;;;;;;;;4339602;32;20161;-63
2021/05/15 03:10:17;;;;;;;10.68;3.10;;;;;;;;;;4339163;32;20153;-63
2021/05/15 03:12:44;;;;;;;8.98;3.12;;;;;;;;;;4363584;32;20561;-62
2021/05/15 03:15:12;;;;;;;6.60;2.58;;;;;;;;;;4377126;32;20076;-63
2021/05/15 03:17:41;;;;;;;12.73;3.60;;;;;;;;;;4376299;32;20104;-62
2021/05/15 03:20:10;;;;;;;6.45;2.80;;;;;;;;;;4363409;32;20081;-63
2021/05/15 03:22:36;;;;;;;10.85;3.10;;;;;;;;;;4382114;32;20149;-63
2021/05/15 03:25:04;;;;;;;8.18;3.20;;;;;;;;;;4393407;32;20069;-67
2021/05/15 03:27:30;;;;;;;7.60;2.87;;;;;;;;;;4368636;32;20065;-63
2021/05/15 03:29:57;;;;;;;7.93;2.97;;;;;;;;;;4380580;32;20089;-63
2021/05/15 03:32:24;;;;;;;9.98;3.12;;;;;;;;;;4406116;32;20070;-62
2021/05/15 03:34:51;;;;;;;12.48;3.42;;;;;;;;;;4380611;32;20058;-62
2021/05/15 03:37:18;;;;;;;12.93;3.53;;;;;;;;;;4368904;32;20081;-63
2021/05/15 03:39:45;;;;;;;9.40;3.00;;;;;;;;;;4390802;32;20137;-63
2021/05/15 03:42:11;;;;;;;11.18;4.22;;;;;;;;;;4365599;32;20058;-61
2021/05/15 03:44:38;;;;;;;7.82;3.42;;;;;;;;;;4390344;32;20179;-63
2021/05/15 03:47:04;;;;;;;7.12;3.05;;;;;;;;;;4352991;32;20508;-63
2021/05/15 03:49:32;;;;;;;12.25;4.28;;;;;;;;;;4377870;32;20166;-63
2021/05/15 03:51:59;;;;;;;5.65;2.92;;;;;;;;;;4365716;32;20145;-63
2021/05/15 03:54:25;;;;;;;7.95;3.17;;;;;;;;;;4389899;32;20072;-64
2021/05/15 03:56:52;;;;;;;6.07;3.17;;;;;;;;;;4377682;32;20082;-63
2021/05/15 03:59:19;;;;;;;6.57;2.90;;;;;;;;;;4353278;32;20160;-62
2021/05/15 04:01:46;;;;;;;11.60;3.58;;;;;;;;;;4390124;32;20078;-62
2021/05/15 04:04:13;;;;;;;8.70;3.20;;;;;;;;;;4365438;32;20157;-62
2021/05/15 04:06:40;;;;;;;5.18;3.00;;;;;;;;;;4365131;32;20151;-63
2021/05/15 04:09:06;;;;;;;5.85;3.05;;;;;;;;;;4378191;32;20165;-63
2021/05/15 04:11:35;;;;;;;8.98;2.97;;;;;;;;;;4364639;32;20080;-63
2021/05/15 04:19:28;;;;;;;8.48;3.33;;;;;;;;;;4379845;32;20087;-62
2021/05/15 04:21:55;;;;;;;9.00;3.22;;;;;;;;;;4377348;32;20078;-63
2021/05/15 04:24:24;;;;;;;4.22;2.60;;;;;;;;;;4366355;32;20081;-63
2021/05/15 04:27:02;;;;;;;5.53;2.78;;;;;;;;;;4405244;32;20552;-63
2021/05/15 04:29:28;;;;;;;6.30;2.83;;;;;;;;;;4393360;32;20448;-63
2021/05/15 04:31:56;;;;;;;5.30;2.87;;;;;;;;;;4392606;32;20081;-63
2021/05/15 04:34:23;;;;;;;7.62;3.03;;;;;;;;;;4392017;32;20507;-62
2021/05/15 04:36:50;;;;;;;7.12;3.15;;;;;;;;;;4373565;32;20067;-62
2021/05/15 04:39:17;;;;;;;9.75;3.20;;;;;;;;;;4374859;32;20085;-64
2021/05/15 04:41:44;;;;;;;8.48;3.20;;;;;;;;;;4349800;32;20071;-63
2021/05/15 04:44:11;;;;;;;8.82;3.00;;;;;;;;;;4349683;32;20085;-63
2021/05/15 04:46:37;;;;;;;10.10;3.45;;;;;;;;;;4374887;32;20062;-62
2021/05/15 04:49:04;;;;;;;8.95;3.10;;;;;;;;;;4375136;32;20066;-62
2021/05/15 04:51:30;;;;;;;8.30;2.90;;;;;;;;;;4375691;32;20071;-63
2021/05/15 04:53:57;;;;;;;8.10;3.15;;;;;;;;;;4350157;32;20089;-63
2021/05/15 04:56:24;;;;;;;5.37;2.92;;;;;;;;;;4349991;32;20155;-63
2021/05/15 04:58:51;;;;;;;8.25;3.17;;;;;;;;;;4350015;32;20078;-63
2021/05/15 05:01:17;;;;;;;6.97;3.10;;;;;;;;;;4362787;32;20070;-62
2021/05/15 05:03:43;;;;;;;8.88;3.12;;;;;;;;;;4352427;32;20084;-63
2021/05/15 05:06:10;;;;;;;11.05;3.60;;;;;;;;;;4340742;32;20167;-62
2021/05/15 05:08:37;;;;;;;11.10;3.62;;;;;;;;;;4377650;32;20105;-63
2021/05/15 05:11:04;;;;;;;12.25;3.10;;;;;;;;;;4340515;32;20094;-62
2021/05/15 05:13:30;;;;;;;10.02;3.00;;;;;;;;;;4377289;32;20069;-63
2021/05/15 05:15:57;;;;;;;10.30;3.03;;;;;;;;;;4365108;32;20089;-63
2021/05/15 05:18:26;;;;;;;6.60;2.97;;;;;;;;;;4378204;32;20097;-63
2021/05/15 05:20:56;;;;;;;10.98;3.40;;;;;;;;;;4378241;32;20062;-61
2021/05/15 05:23:23;;;;;;;9.15;3.20;;;;;;;;;;4369115;32;20065;-60
2021/05/15 05:25:50;;;;;;;6.85;3.03;;;;;;;;;;4382591;32;20149;-62
2021/05/15 05:28:21;;;;;;;6.60;2.90;;;;;;;;;;4382550;32;20468;-62
2021/05/15 05:30:48;;;;;;;8.20;2.60;;;;;;;;;;4395588;32;20203;-63
2021/05/15 05:33:15;;;;;;;7.43;2.60;;;;;;;;;;4388772;32;20066;-65
2021/05/15 05:35:42;;;;;;;7.95;3.00;;;;;;;;;;4352943;32;20078;-65
2021/05/15 05:38:09;;;;;;;9.18;3.42;;;;;;;;;;4384117;32;20147;-63
2021/05/15 05:40:35;;;;;;;6.35;2.90;;;;;;;;;;4383295;32;20070;-69
2021/05/15 05:43:02;;;;;;;10.35;3.00;;;;;;;;;;4351413;32;20089;-75
2021/05/15 05:45:29;;;;;;;6.25;2.80;;;;;;;;;;4381321;32;20157;-72
2021/05/15 05:47:55;;;;;;;8.48;3.35;;;;;;;;;;4385086;32;20503;-64
2021/05/15 05:50:22;;;;;;;8.60;2.92;;;;;;;;;;4367444;32;20069;-64
2021/05/15 05:52:48;;;;;;;7.82;3.20;;;;;;;;;;4376007;32;20080;-67
2021/05/15 05:55:15;;;;;;;6.28;2.67;;;;;;;;;;4387898;32;20093;-64
2021/05/15 05:57:41;;;;;;;7.68;2.72;;;;;;;;;;4393051;32;20162;-71
2021/05/15 06:00:09;;;;;;;5.40;2.53;;;;;;;;;;4387407;32;20070;-66
2021/05/15 06:02:35;;;;;;;8.35;3.17;;;;;;;;;;4376960;32;21650;-65
2021/05/15 06:05:02;;;;;;;5.82;3.08;;;;;;;;;;4389063;32;20215;-64
2021/05/15 06:07:29;;;;;;;8.73;3.03;;;;;;;;;;4392280;32;20584;-67
2021/05/15 06:09:56;;;;;;;6.80;3.05;;;;;;;;;;4367241;32;20168;-64
2021/05/15 06:12:23;;;;;;;11.38;3.20;;;;;;;;;;4366221;32;20084;-68
2021/05/15 06:14:50;;;;;;;8.88;3.00;;;;;;;;;;4391349;32;20086;-63
2021/05/15 06:17:16;;;;;;;9.77;3.12;;;;;;;;;;4379460;32;20436;-66
2021/05/15 06:19:44;;;;;;;9.05;3.33;;;;;;;;;;4379097;32;20070;-71
2021/05/15 06:22:14;;;;;;;8.48;3.22;;;;;;;;;;4379969;32;20156;-72
2021/05/15 06:24:41;;;;;;;7.93;2.92;;;;;;;;;;4385008;32;20175;-69
2021/05/15 06:27:08;;;;;;;8.23;3.50;;;;;;;;;;4353117;32;20153;-71
2021/05/15 06:29:35;;;;;;;10.57;3.22;;;;;;;;;;4352976;32;20078;-65
2021/05/15 06:32:03;;;;;;;14.63;3.40;;;;;;;;;;4363483;32;20061;-62
2021/05/15 06:34:30;;;;;;;7.57;3.10;;;;;;;;;;4366008;32;20070;-65
2021/05/15 06:36:56;;;;;;;7.37;3.30;;;;;;;;;;4376182;32;20073;-64
2021/05/15 06:39:23;;;;;;;5.87;2.90;;;;;;;;;;4376228;32;20436;-64
2021/05/15 06:41:50;;;;;;;8.90;3.20;;;;;;;;;;4364241;32;20089;-67
2021/05/15 06:44:16;;;;;;;10.63;3.42;;;;;;;;;;4363332;32;20075;-65
2021/05/15 06:46:43;;;;;;;9.23;3.17;;;;;;;;;;4374970;32;20170;-66
2021/05/15 06:49:10;;;;;;;8.70;3.17;;;;;;;;;;4381148;32;20174;-68
2021/05/15 06:51:36;;;;;;;14.43;3.72;;;;;;;;;;4380649;32;20081;-63
2021/05/15 06:54:03;;;;;;;7.70;3.12;;;;;;;;;;4384263;32;20074;-66
2021/05/15 06:56:30;;;;;;;13.62;3.95;;;;;;;;;;4376141;32;20057;-65
2021/05/15 06:58:57;;;;;;;12.02;3.70;;;;;;;;;;4338644;32;20082;-67
2021/05/15 07:01:25;;;;;;;10.25;3.70;;;;;;;;;;4364210;32;20085;-67
2021/05/15 07:03:52;;;;;;;9.35;3.53;;;;;;;;;;4361606;32;20072;-71
2021/05/15 07:06:18;;;;;;;11.40;4.25;;;;;;;;;;4364765;32;20077;-76
2021/05/15 07:08:45;;;;;;;7.75;3.40;;;;;;;;;;4363895;32;20070;-71
2021/05/15 07:11:12;;;;;;;8.77;3.03;;;;;;;;;;4350672;32;20070;-75
2021/05/15 07:13:38;;;;;;;10.52;4.22;;;;;;;;;;4353058;32;20065;-67
2021/05/15 07:16:06;;;;;;;9.25;3.53;;;;;;;;;;4363470;32;20078;-66
2021/05/15 07:18:32;;;;;;;10.82;3.53;;;;;;;;;;4375886;32;20142;-67
2021/05/15 07:20:59;;;;;;;12.57;3.35;;;;;;;;;;4369927;32;20080;-71
2021/05/15 07:23:25;;;;;;;11.82;4.15;;;;;;;;;;4369366;32;20109;-76
2021/05/15 07:25:52;;;;;;;11.57;3.65;;;;;;;;;;4386244;32;20069;-70
2021/05/15 07:28:19;;;;;;;8.20;3.35;;;;;;;;;;4388229;32;20139;-72
2021/05/15 07:30:46;;;;;;;11.98;3.25;;;;;;;;;;4364220;32;20062;-74
2021/05/15 07:33:12;;;;;;;13.50;3.72;;;;;;;;;;4357469;32;20089;-74
2021/05/15 07:35:39;;;;;;;7.05;3.45;;;;;;;;;;4364843;32;20082;-71
2021/05/15 07:38:06;;;;;;;9.80;3.35;;;;;;;;;;4359547;32;20101;-75
2021/05/15 07:40:33;;;;;;;9.38;3.35;;;;;;;;;;4363970;32;20142;-71
2021/05/15 07:43:04;;;;;;;10.52;3.37;;;;;;;;;;4338202;32;20534;-68
2021/05/15 07:45:31;;;;;;;12.00;3.25;;;;;;;;;;4376342;32;20084;-70
2021/05/15 07:48:00;;;;;;;14.25;3.62;;;;;;;;;;4348353;32;20086;-69
2021/05/15 07:50:28;;;;;;;9.77;3.83;;;;;;;;;;4361761;32;20201;-72
2021/05/15 07:52:55;;;;;;;9.20;3.47;;;;;;;;;;4374609;32;20625;-68
2021/05/15 07:55:21;;;;;;;14.52;4.95;;;;;;;;;;4337070;32;20501;-70
2021/05/15 07:57:48;;;;;;;9.15;3.05;;;;;;;;;;4362314;32;20070;-68
2021/05/15 08:00:15;;;;;;;9.27;3.70;;;;;;;;;;4362330;32;20086;-70
2021/05/15 08:02:42;;;;;;;21.08;4.12;;;;;;;;;;4374390;32;20085;-70
2021/05/15 08:05:10;;;;;;;11.43;3.67;;;;;;;;;;4350152;32;20102;-70
2021/05/15 08:07:37;;;;;;;11.60;3.55;;;;;;;;;;4337961;32;20100;-69
2021/05/15 08:10:08;;;;;;;12.35;3.42;;;;;;;;;;4337884;32;20182;-69
2021/05/15 08:12:36;;;;;;;10.40;3.42;;;;;;;;;;4350501;32;20075;-69
2021/05/15 08:15:05;;;;;;;8.95;3.22;;;;;;;;;;4350682;32;20071;-69
2021/05/15 08:17:34;;;;;;;9.98;3.30;;;;;;;;;;4350730;32;20102;-69
2021/05/15 08:20:02;;;;;;;11.35;3.47;;;;;;;;;;4350728;32;20080;-68
2021/05/15 08:22:29;;;;;;;11.07;3.75;;;;;;;;;;4365283;32;20074;-69
2021/05/15 08:24:57;;;;;;;9.13;3.50;;;;;;;;;;4377886;32;20203;-69
2021/05/15 08:27:26;;;;;;;6.43;3.50;;;;;;;;;;4365145;32;20592;-69
2021/05/15 08:29:53;;;;;;;8.88;3.40;;;;;;;;;;4352609;32;20070;-69
2021/05/15 08:32:20;;;;;;;7.30;3.42;;;;;;;;;;4389941;32;20060;-69
2021/05/15 08:34:46;;;;;;;8.60;3.40;;;;;;;;;;4378187;32;20065;-68
2021/05/15 08:37:13;;;;;;;10.95;4.03;;;;;;;;;;4382524;32;20455;-69
2021/05/15 08:39:40;;;;;;;12.85;3.62;;;;;;;;;;4366104;32;20065;-69
2021/05/15 08:42:07;;;;;;;14.30;3.87;;;;;;;;;;4352704;32;20065;-69
2021/05/15 08:44:36;;;;;;;8.80;3.33;;;;;;;;;;4389571;32;20081;-69
2021/05/15 08:47:02;;;;;;;11.77;3.45;;;;;;;;;;4378323;32;20086;-68
2021/05/15 08:49:29;;;;;;;9.70;3.45;;;;;;;;;;4365003;32;20058;-69
2021/05/15 08:51:56;;;;;;;9.70;3.30;;;;;;;;;;4352432;32;20532;-68
2021/05/15 08:54:22;;;;;;;10.25;3.22;;;;;;;;;;4352882;32;20081;-69
2021/05/15 08:56:50;;;;;;;9.02;3.55;;;;;;;;;;4377192;32;20066;-69
2021/05/15 08:59:17;;;;;;;7.28;3.17;;;;;;;;;;4365190;32;20084;-69
2021/05/15 09:01:45;;;;;;;9.40;3.40;;;;;;;;;;4365137;32;20090;-68
2021/05/15 09:04:11;;;;;;;11.35;3.47;;;;;;;;;;4377185;32;20080;-68
2021/05/15 09:06:42;;;;;;;7.30;3.40;;;;;;;;;;4377684;32;20069;-68
2021/05/15 09:09:08;;;;;;;9.05;3.22;;;;;;;;;;4364982;32;20237;-68
2021/05/15 09:11:35;;;;;;;7.35;3.20;;;;;;;;;;4364633;32;20104;-68
2021/05/15 09:14:02;;;;;;;7.62;3.12;;;;;;;;;;4365587;32;20148;-68
2021/05/15 09:16:29;;;;;;;11.85;2.97;;;;;;;;;;4364845;32;20086;-69
2021/05/15 09:19:09;;;;;;;7.03;3.12;;;;;;;;;;3857403;37;20074;-69
2021/05/15 09:21:36;;;;;;;7.53;3.20;;;;;;;;;;4406038;32;20057;-69
2021/05/15 09:24:06;;;;;;;7.62;3.17;;;;;;;;;;4406099;32;20072;-69
2021/05/15 09:26:32;;;;;;;9.07;3.15;;;;;;;;;;4366854;32;20069;-69
2021/05/15 09:28:59;;;;;;;8.95;3.10;;;;;;;;;;4367321;32;20084;-69
2021/05/15 09:31:35;;;;;;;8.52;2.97;;;;;;;;;;4375557;32;20050;-69
2021/05/15 09:34:05;;;;;;;7.40;3.00;;;;;;;;;;4375815;32;20085;-69
2021/05/15 09:36:34;;;;;;;9.25;3.55;;;;;;;;;;4378972;32;20095;-70
2021/05/15 09:39:04;;;;;;;7.20;3.05;;;;;;;;;;4363207;32;20074;-68
2021/05/15 09:41:31;;;;;;;7.93;3.40;;;;;;;;;;4387264;32;20096;-68
2021/05/15 09:43:58;;;;;;;10.18;3.30;;;;;;;;;;4375525;32;20066;-69
2021/05/15 09:46:26;;;;;;;7.85;3.47;;;;;;;;;;4363159;32;20069;-69
2021/05/15 09:48:54;;;;;;;10.13;2.80;;;;;;;;;;4363115;32;20143;-69
2021/05/15 09:51:21;;;;;;;8.73;3.20;;;;;;;;;;4351331;32;20178;-69
2021/05/15 09:53:47;;;;;;;9.13;3.30;;;;;;;;;;4363785;32;20069;-68
2021/05/15 09:56:25;;;;;;;6.47;2.90;;;;;;;;;;4362752;32;20081;-67
2021/05/15 09:58:52;;;;;;;10.43;3.53;;;;;;;;;;4374748;32;20069;-68
2021/05/15 10:01:19;;;;;;;9.02;3.42;;;;;;;;;;4362720;32;20062;-69
2021/05/15 10:03:48;;;;;;;6.55;3.08;;;;;;;;;;4401694;32;20068;-69
2021/05/15 10:06:16;;;;;;;9.38;3.42;;;;;;;;;;4390169;32;20126;-68
2021/05/15 10:08:43;;;;;;;5.12;2.35;;;;;;;;;;4386523;32;20709;-77
2021/05/15 10:11:10;;;;;;;8.27;2.80;;;;;;;;;;4380715;32;20096;-67
2021/05/15 10:13:38;;;;;;;5.43;2.62;;;;;;;;;;4378603;32;20078;-71
2021/05/15 10:16:05;;;;;;;9.38;2.45;;;;;;;;;;4377840;32;20228;-68
2021/05/15 10:18:32;;;;;;;8.68;3.08;;;;;;;;;;4394974;32;20524;-71
2021/05/15 10:20:59;;;;;;;8.90;3.30;;;;;;;;;;4392870;32;20081;-72
2021/05/15 10:23:30;;;;;;;5.68;2.80;;;;;;;;;;4392677;32;20105;-69
2021/05/15 10:26:05;;;;;;;6.93;2.90;;;;;;;;;;4386264;32;20109;-68
2021/05/15 10:28:35;;;;;;;7.85;3.22;;;;;;;;;;4381648;32;20600;-70
2021/05/15 10:31:06;;;;;;;6.28;3.15;;;;;;;;;;4354676;32;20538;-71
2021/05/15 10:33:33;;;;;;;7.37;3.12;;;;;;;;;;4375918;32;20109;-68
2021/05/15 10:36:03;;;;;;;8.75;3.42;;;;;;;;;;4363284;32;20066;-72
2021/05/15 10:38:37;;;;;;;6.28;3.15;;;;;;;;;;4361775;32;20078;-72
2021/05/15 10:41:18;;;;;;;8.98;3.60;;;;;;;;;;4379949;32;20089;-68
2021/05/15 10:43:45;;;;;;;7.10;3.37;;;;;;;;;;4362043;32;20065;-69
2021/05/15 10:46:27;;;;;;;7.12;3.80;;;;;;;;;;4371411;32;20075;-69
2021/05/15 10:48:58;;;;;;;10.50;3.45;;;;;;;;;;4375250;32;20186;-70
2021/05/15 10:51:42;;;;;;;6.70;3.22;;;;;;;;;;4386343;32;20066;-71
2021/05/15 10:54:09;;;;;;;12.85;3.20;;;;;;;;;;4374402;32;20436;-70
2021/05/15 10:56:36;;;;;;;4.95;2.90;;;;;;;;;;4362033;32;20139;-67
2021/05/15 10:59:20;;;;;;;7.32;3.12;;;;;;;;;;4386504;32;20085;-66
2021/05/15 11:01:49;;;;;;;5.93;3.08;;;;;;;;;;4353541;32;20066;-70
2021/05/15 11:04:22;;;;;;;7.82;2.95;;;;;;;;;;4376423;32;20061;-72
2021/05/15 11:07:08;;;;;;;9.07;4.00;;;;;;;;;;4361488;32;20085;-77
2021/05/15 11:09:59;;;;;;;9.52;3.40;;;;;;;;;;4373566;32;20181;-68
2021/05/15 11:12:27;;;;;;;7.32;3.50;;;;;;;;;;4388189;32;20077;-74
2021/05/15 11:15:00;;;;;;;6.60;3.17;;;;;;;;;;4387468;32;20074;-74
2021/05/15 11:17:27;;;;;;;6.45;3.55;;;;;;;;;;4365745;32;20460;-75
2021/05/15 11:20:02;;;;;;;7.68;3.80;;;;;;;;;;4366703;32;20161;-71
2021/05/15 11:22:50;;;;;;;9.05;3.50;;;;;;;;;;4390678;32;20073;-81
2021/05/15 11:25:18;;;;;;;9.57;3.47;;;;;;;;;;4365856;32;20081;-74
2021/05/15 11:27:45;;;;;;;8.35;3.62;;;;;;;;;;4389559;32;20089;-74
2021/05/15 11:30:20;;;;;;;10.63;3.58;;;;;;;;;;4374808;32;20481;-72
2021/05/15 11:33:06;;;;;;;7.85;3.55;;;;;;;;;;4374470;32;20073;-75
2021/05/15 11:35:36;;;;;;;9.82;3.80;;;;;;;;;;4383386;32;20147;-70
2021/05/15 11:38:13;;;;;;;8.07;3.83;;;;;;;;;;4372692;32;20583;-69
2021/05/15 11:40:46;;;;;;;7.60;3.72;;;;;;;;;;4373706;32;20073;-67
2021/05/15 11:43:34;;;;;;;8.00;3.33;;;;;;;;;;4375517;32;20078;-73
2021/05/15 11:46:02;;;;;;;7.57;3.90;;;;;;;;;;4394069;32;20070;-75
2021/05/15 11:48:29;;;;;;;11.35;3.60;;;;;;;;;;4373541;32;20512;-72
2021/05/15 11:51:03;;;;;;;10.10;3.60;;;;;;;;;;4361488;32;20089;-76
2021/05/15 11:53:35;;;;;;;7.93;3.85;;;;;;;;;;4382577;32;20479;-66
2021/05/15 11:56:01;;;;;;;8.73;3.72;;;;;;;;;;4373645;32;20503;-69
2021/05/15 11:58:28;;;;;;;14.52;3.80;;;;;;;;;;4385223;32;20101;-78
2021/05/15 12:00:55;;;;;;;9.60;3.92;;;;;;;;;;4361563;32;20066;-71
2021/05/15 12:03:21;;;;;;;8.10;3.42;;;;;;;;;;4373169;32;20521;-73
2021/05/15 12:05:50;;;;;;;9.45;3.67;;;;;;;;;;4367625;32;20157;-71
2021/05/15 12:08:17;;;;;;;12.25;4.30;;;;;;;;;;4388635;32;20101;-70
2021/05/15 12:10:44;;;;;;;7.32;3.47;;;;;;;;;;4376181;32;20146;-69
2021/05/15 12:13:12;;;;;;;13.27;4.15;;;;;;;;;;4377917;32;20171;-69
2021/05/15 12:15:40;;;;;;;9.15;3.70;;;;;;;;;;4389982;32;20165;-69
2021/05/15 12:18:07;;;;;;;10.82;3.90;;;;;;;;;;4377250;32;20112;-69
2021/05/15 12:20:44;;;;;;;10.13;3.65;;;;;;;;;;4365783;32;20164;-70
2021/05/15 12:23:15;;;;;;;10.57;4.32;;;;;;;;;;4362647;32;20432;-70
2021/05/15 12:25:56;;;;;;;13.18;4.43;;;;;;;;;;4366143;32;20054;-69
2021/05/15 12:28:26;;;;;;;12.32;3.97;;;;;;;;;;4372066;32;20154;-69
2021/05/15 12:30:53;;;;;;;9.50;4.00;;;;;;;;;;4357806;32;20166;-71
2021/05/15 12:33:25;;;;;;;11.20;3.97;;;;;;;;;;4384462;32;20067;-70
2021/05/15 12:36:08;;;;;;;12.02;3.92;;;;;;;;;;4364740;32;20295;-69
2021/05/15 12:38:46;;;;;;;9.68;3.85;;;;;;;;;;4378519;32;20551;-70
2021/05/15 12:41:17;;;;;;;12.25;4.37;;;;;;;;;;4378073;32;20065;-69
2021/05/15 12:43:46;;;;;;;7.62;4.12;;;;;;;;;;4366058;32;20076;-69
2021/05/15 12:46:17;;;;;;;10.77;4.45;;;;;;;;;;4365970;32;20069;-69
2021/05/15 12:48:54;;;;;;;8.98;3.50;;;;;;;;;;4353586;32;20069;-69
2021/05/15 12:51:30;;;;;;;8.50;3.70;;;;;;;;;;4366501;32;20066;-69
2021/05/15 12:53:56;;;;;;;12.18;4.40;;;;;;;;;;4365271;32;20513;-70
2021/05/15 12:56:30;;;;;;;13.75;4.43;;;;;;;;;;4377926;32;20472;-69
2021/05/15 12:58:57;;;;;;;9.88;3.92;;;;;;;;;;4377896;32;20082;-69
2021/05/15 13:01:23;;;;;;;9.70;4.03;;;;;;;;;;4365300;32;20070;-70
2021/05/15 13:03:52;;;;;;;8.02;3.58;;;;;;;;;;4377540;32;20073;-69
2021/05/15 13:06:20;;;;;;;6.40;3.58;;;;;;;;;;4365778;32;20069;-69
2021/05/15 13:08:57;;;;;;;7.30;3.75;;;;;;;;;;4365635;32;20150;-70
2021/05/15 13:11:24;;;;;;;7.57;3.58;;;;;;;;;;4365732;32;20078;-69
2021/05/15 13:13:51;;;;;;;7.68;3.60;;;;;;;;;;4377552;32;20072;-69
2021/05/15 13:16:17;;;;;;;13.07;3.80;;;;;;;;;;4377752;32;20464;-69
2021/05/15 13:18:45;;;;;;;8.05;3.70;;;;;;;;;;4365540;32;20077;-69
2021/05/15 13:21:12;;;;;;;7.53;3.95;;;;;;;;;;4365462;32;20468;-69
2021/05/15 13:23:38;;;;;;;8.27;3.60;;;;;;;;;;4364628;32;20193;-69
2021/05/15 13:26:06;;;;;;;8.32;3.67;;;;;;;;;;4364700;32;20452;-69
2021/05/15 13:28:37;;;;;;;9.63;3.55;;;;;;;;;;4376947;32;20089;-69
2021/05/15 13:31:25;;;;;;;10.43;3.65;;;;;;;;;;4378004;32;20584;-70
2021/05/15 13:33:51;;;;;;;9.93;3.90;;;;;;;;;;4379441;32;20158;-69
2021/05/15 13:36:18;;;;;;;6.75;3.55;;;;;;;;;;4377633;32;20078;-69
2021/05/15 13:38:45;;;;;;;9.05;3.60;;;;;;;;;;4377304;32;20211;-69
2021/05/15 13:41:12;;;;;;;6.25;3.42;;;;;;;;;;4389787;32;20081;-69
2021/05/15 13:43:38;;;;;;;6.97;3.55;;;;;;;;;;4377133;32;20118;-70
2021/05/15 13:46:05;;;;;;;7.55;3.50;;;;;;;;;;4377395;32;20243;-70
2021/05/15 13:48:32;;;;;;;6.82;3.75;;;;;;;;;;4377764;32;20581;-69
2021/05/15 13:51:17;;;;;;;8.98;3.95;;;;;;;;;;4377271;32;20592;-69
2021/05/15 13:53:45;;;;;;;6.28;3.60;;;;;;;;;;4402516;32;20077;-69
2021/05/15 13:56:12;;;;;;;9.52;3.58;;;;;;;;;;4377218;32;20066;-69
2021/05/15 13:58:39;;;;;;;6.82;3.72;;;;;;;;;;4364444;32;20284;-70
2021/05/15 14:01:06;;;;;;;10.00;3.90;;;;;;;;;;4391076;32;20151;-68
2021/05/15 14:03:33;;;;;;;6.90;3.72;;;;;;;;;;4377342;32;20077;-70
2021/05/15 14:05:59;;;;;;;9.30;3.70;;;;;;;;;;4379940;32;20153;-69
2021/05/15 14:08:26;;;;;;;6.90;4.10;;;;;;;;;;4392438;32;20081;-69
2021/05/15 14:10:53;;;;;;;7.25;3.50;;;;;;;;;;4380177;32;20078;-70
2021/05/15 14:13:19;;;;;;;9.60;3.60;;;;;;;;;;4380482;32;20070;-69
2021/05/15 14:15:46;;;;;;;7.47;3.47;;;;;;;;;;4367225;32;20068;-68
2021/05/15 14:18:13;;;;;;;6.43;3.72;;;;;;;;;;4405014;32;20088;-69
2021/05/15 14:20:40;;;;;;;6.30;3.62;;;;;;;;;;4380331;32;20090;-69
2021/05/15 14:23:07;;;;;;;5.68;3.10;;;;;;;;;;4367705;32;20467;-70
2021/05/15 14:25:34;;;;;;;7.80;4.50;;;;;;;;;;4392676;32;20058;-69
2021/05/15 14:28:01;;;;;;;8.57;4.12;;;;;;;;;;4392544;32;20074;-69
2021/05/15 14:30:27;;;;;;;6.57;3.55;;;;;;;;;;4379666;32;20519;-68
2021/05/15 14:32:54;;;;;;;5.60;3.37;;;;;;;;;;4379761;32;20077;-69
2021/05/15 14:35:21;;;;;;;7.30;3.53;;;;;;;;;;4392613;32;20090;-69
2021/05/15 14:37:48;;;;;;;8.13;3.35;;;;;;;;;;4379822;32;20153;-69
2021/05/15 14:40:18;;;;;;;7.03;3.53;;;;;;;;;;4379726;32;20081;-68
2021/05/15 14:42:45;;;;;;;7.37;3.50;;;;;;;;;;4379941;32;20073;-70
2021/05/15 14:45:12;;;;;;;7.93;3.50;;;;;;;;;;4367024;32;20072;-69
2021/05/15 14:47:38;;;;;;;7.22;3.58;;;;;;;;;;4367339;32;20084;-69
2021/05/15 14:50:05;;;;;;;7.75;4.62;;;;;;;;;;4404569;32;20094;-69